Text Box: All records at near 07:00 local time
Kleivo 1 weather for Sep 2010
Month no. 46
Obs.
Da.
Temp. Dew Point Precip. Wind
Speed
Wind gusts Cloud cover Press. Humidity Wind dir. Sunny OPT
01.09.2010 11,8 10,7 0,0 0,0 0,0 9 1016,8 93,0 202,5   87,5 %
02.09.2010 8,3 7,4 0,0 0,0 0,0 9 1019,2 94,0 292,5   85,0 %
03.09.2010 9,7 8,7 0,0 0,0 0,0 9 1018,5 94,0 22,5   85,0 %
04.09.2010 11,2 9,7 0,0 3,2 3,2 9 1021,9 90,0 22,5   87,5 %
05.09.2010 10,7 9,9 0,0 4,8 8,0 9 1026,6 95,0 0,0   85,0 %
06.09.2010 12,1 11,3 0,0 6,4 6,4 9 1024,9 95,0 22,5   85,0 %
07.09.2010 15,2 12,6 0,0 1,6 1,6 9 1018,8 84,0 22,5   92,5 %
08.09.2010 14,9 10,6 0,0 8,0 8,0 9 1016,1 75,0 22,5   85,0 %
09.09.2010 15,6 9,2 0,0 1,6 1,6 9 1015,5 66,0 22,5   92,5 %
10.09.2010 15,6 10,8 0,0 1,6 9,7 9 1015,5 66,0 22,5   92,5 %
11.09.2010 15,6 11,7 0,0 1,6 11,3 9 1015,5 66,0 22,5   92,5 %
12.09.2010 15,6 12,9 0,0 1,6 0,0 9 1015,5 66,0 22,5   92,5 %
13.09.2010 15,6 10,9 0,0 1,6 0,0 9 1015,5 66,0 22,5   92,5 %
14.09.2010 13,8 12,6 0,0 24,1 24,1 5 996,2 92,0 202,5   65,0 %
15.09.2010 8,6 7,4 0,0 3,2 3,2 5 987,4 92,0 202,5   75,0 %
16.09.2010 11,4 10,4 0,0 8,0 9,7 5 985,7 94,0 180,0   72,5 %
17.09.2010 9,2 8,3 0,0 0,0 0,0 5 988,4 94,0 247,5   75,0 %
18.09.2010 9,2 9,1 0,0 0,0 0,0 5 988,4 94,0 247,5   75,0 %
19.09.2010 9,2 9,0 0,0 0,0 0,0 5 988,4 94,0 247,5   75,0 %
20.09.2010 8,4 7,8 0,0 6,4 8,0 5 1003,3 96,0 22,5   72,5 %
21.09.2010 8,7 7,2 0,0 0,0 0,0 5 1011,7 90,0 0,0   75,0 %
22.09.2010 12,1 7,6 0,0 3,2 3,2 5 1015,1 74,0 337,5   77,5 %
23.09.2010 13,4 12,6 0,0 9,7 11,3 5 1005,3 95,0 202,5   75,0 %
24.09.2010 13,4 8,5 0,0 9,7 3,2 5 1005,3 95,0 202,5   75,0 %
25.09.2010 13,4 3,3 0,0 9,7 3,2 5 1005,3 95,0 202,5   75,0 %
26.09.2010 13,4 3,3 0,0 9,7 3,2 5 1005,3 95,0 202,5   75,0 %
27.09.2010 10,2 5,9 0,0 9,7 9,7 5 1015,1 75,0 22,5   72,5 %
28.09.2010 9,6 4,9 0,0 3,2 0,0 5 998,9 93,0 0,0   75,0 %
29.09.2010 7,2 5,4 0,0 0,0 0,0 5 1022,9 88,0 22,5   72,5 %
30.09.2010 5,6 4,3 0,0 1,6 1,6 5 1019,2 91,0 0,0   72,5 %
                       
Avrg/Sum 11,6 8,8 0,0 4,3 4,3 6,7 1009,4 86,6 108,8   80,3 %